KEVW/EVW METAR and TAF weather

Enter ICAO airport designator
Station Type Date Time Source
KEVW METAR 2019/12/08 17:02 UTC NOAA

KEVW 081702Z AUTO 22010KT 1/4SM FZFG BKN002 OVC014 M01/M02 A2988 RMK AO2 T10111017


Station Type Date Time Source
KEVW Decoded METAR 2019/12/08 17:02 UTC NOAA

EVANSTON-UINTA COUNTY FIELD, WY, United States (KEVW) 41-16N 111-02W 2177M
Dec 08, 2019 - 12:02 PM EST / 2019.12.08 1702 UTC
Wind: from the SW (220 degrees) at 12 MPH (10 KT):0
Visibility: 1/4 mile(s):0
Sky conditions: overcast
Weather: freezing fog
Temperature: 30.0 F (-1.1 C)
Windchill: 19 F (-7 C):1
Dew Point: 28.9 F (-1.7 C)
Relative Humidity: 95%
Pressure (altimeter): 29.88 in. Hg (1011 hPa)
ob: KEVW 081702Z AUTO 22010KT 1/4SM FZFG BKN002 OVC014 M01/M02 A2988 RMK AO2 T10111017
cycle: 17

Station Type Date Time Source
KEVW TAF 2019/12/08 15:58 UTC NOAA

TAF
AMD KEVW 081455Z 0815/0912 28014KT 1SM -SN BR BKN007 BKN015
FM081900 26014KT P6SM VCSH SCT020 BKN040

Example: see airport list